Time;durP1;ratioP1;P1;durP2;ratioP2;P2;SDS_P1;SDS_P2;PMS_P1;PMS_P2;Temp;Humidity;BMP_temperature;BMP_pressure;BME280_temperature;BME280_humidity;BME280_pressure;Samples;Min_cycle;Max_cycle;Signal;HPM_P1;HPM_P2
2023/10/06 00:01:21;;;;;;;9.23;3.85;;;12.60;99.90;;;;;;5066296;28;20037;-69
2023/10/06 00:03:57;;;;;;;9.18;3.50;;;12.60;99.90;;;;;;5060206;28;20064;-69
2023/10/06 00:06:23;;;;;;;9.43;3.42;;;12.70;99.90;;;;;;5060971;28;20313;-69
2023/10/06 00:08:54;;;;;;;8.23;3.53;;;12.60;99.90;;;;;;5042714;28;20102;-69
2023/10/06 00:11:31;;;;;;;6.65;3.05;;;12.60;99.90;;;;;;5070970;28;20041;-69
2023/10/06 00:14:18;;;;;;;11.15;3.40;;;12.70;99.90;;;;;;5057918;28;20045;-69
2023/10/06 00:16:45;;;;;;;8.60;3.70;;;12.60;99.90;;;;;;5076210;28;20044;-69
2023/10/06 00:21:53;;;;;;;11.90;3.67;;;12.70;99.90;;;;;;5066351;28;20155;-68
2023/10/06 00:24:23;;;;;;;9.63;3.35;;;12.70;99.90;;;;;;5045295;28;20119;-68
2023/10/06 00:26:49;;;;;;;;;;;12.70;99.90;;;;;;5062618;28;20090;-68
2023/10/06 00:29:21;;;;;;;;;;;12.60;99.90;;;;;;5071582;28;19963;-67
2023/10/06 00:31:47;;;;;;;;;;;12.70;99.90;;;;;;5059058;28;20248;-70
2023/10/06 00:34:19;;;;;;;;;;;12.70;99.90;;;;;;5060146;28;20287;-68
2023/10/06 00:36:56;;;;;;;;;;;12.70;99.90;;;;;;5070561;28;20340;-69
2023/10/06 00:39:25;;;;;;;;;;;12.70;99.90;;;;;;5071742;28;19916;-68
2023/10/06 00:42:03;;;;;;;;;;;12.70;99.90;;;;;;5061604;28;19916;-69
2023/10/06 00:44:30;;;;;;;;;;;12.70;99.90;;;;;;5064188;28;19923;-68
2023/10/06 00:46:58;;;;;;;;;;;12.80;99.90;;;;;;5058606;28;19956;-68
2023/10/06 00:49:25;;;;;;;;;;;12.70;99.90;;;;;;5054414;28;19920;-68
2023/10/06 00:51:53;;;;;;;;;;;12.80;99.90;;;;;;5073044;28;19920;-69
2023/10/06 00:54:19;;;;;;;;;;;12.70;99.90;;;;;;5051224;28;19974;-68
2023/10/06 00:56:46;;;;;;;;;;;12.70;99.90;;;;;;5062547;28;19963;-68
2023/10/06 00:59:12;;;;;;;;;;;12.70;99.90;;;;;;5056741;28;19932;-68
2023/10/06 01:01:42;;;;;;;;;;;12.70;99.90;;;;;;5060502;28;19920;-68
2023/10/06 01:06:33;;;;;;;;;;;12.60;99.90;;;;;;5055884;28;19971;-67
2023/10/06 01:09:16;;;;;;;;;;;12.60;99.90;;;;;;5068598;28;19928;-68
2023/10/06 01:11:43;;;;;;;;;;;12.60;99.90;;;;;;5054844;28;19920;-67
2023/10/06 01:14:09;;;;;;;;;;;12.70;99.90;;;;;;5057228;28;19953;-68
2023/10/06 01:16:38;;;;;;;;;;;12.70;99.90;;;;;;5071262;28;19916;-69
2023/10/06 01:21:48;;;;;;;;;;;12.70;99.90;;;;;;5071735;28;19916;-68
2023/10/06 01:24:15;;;;;;;;;;;12.70;99.90;;;;;;5062409;28;19916;-69
2023/10/06 01:26:41;;;;;;;;;;;12.80;99.90;;;;;;5076617;28;20268;-68
2023/10/06 01:29:10;;;;;;;;;;;12.80;99.90;;;;;;5049872;28;20462;-68
2023/10/06 01:31:40;;;;;;;;;;;12.80;99.90;;;;;;5059358;28;19931;-68
2023/10/06 01:34:07;;;;;;;;;;;12.80;99.90;;;;;;5052723;28;19917;-68
2023/10/06 01:36:34;;;;;;;;;;;12.80;99.90;;;;;;5050635;28;19916;-67
2023/10/06 01:39:04;;;;;;;;;;;12.80;99.90;;;;;;5053497;28;19931;-67
2023/10/06 01:41:34;;;;;;;;;;;12.80;99.90;;;;;;5055577;28;20019;-67
2023/10/06 01:44:00;;;;;;;;;;;12.80;99.90;;;;;;5054276;28;19917;-68
2023/10/06 01:46:26;;;;;;;;;;;12.90;99.90;;;;;;5070268;28;19932;-68
2023/10/06 01:48:51;;;;;;;;;;;12.80;99.90;;;;;;5051974;28;19925;-67
2023/10/06 01:51:17;;;;;;;;;;;12.90;99.90;;;;;;5049376;28;19920;-68
2023/10/06 01:53:43;;;;;;;;;;;12.90;99.90;;;;;;5080268;28;19920;-68
2023/10/06 01:56:08;;;;;;;;;;;12.90;99.90;;;;;;5085285;28;19921;-68
2023/10/06 01:58:34;;;;;;;;;;;13.00;99.90;;;;;;5075379;28;20013;-67
2023/10/06 02:01:00;;;;;;;;;;;13.00;99.90;;;;;;5062392;28;19923;-67
2023/10/06 02:03:26;;;;;;;;;;;13.00;99.90;;;;;;5060536;28;20320;-67
2023/10/06 02:05:54;;;;;;;;;;;13.00;99.90;;;;;;5061331;28;19928;-67
2023/10/06 02:08:23;;;;;;;;;;;13.00;99.90;;;;;;5055937;28;19943;-68
2023/10/06 02:10:52;;;;;;;;;;;13.00;99.90;;;;;;5065971;28;20303;-67
2023/10/06 02:13:20;;;;;;;;;;;13.00;99.90;;;;;;5046756;28;19916;-68
2023/10/06 02:15:45;;;;;;;;;;;13.00;99.90;;;;;;5060322;28;20209;-69
2023/10/06 02:18:12;;;;;;;;;;;13.00;99.90;;;;;;5058862;28;19955;-67
2023/10/06 02:20:41;;;;;;;;;;;13.00;99.90;;;;;;5069090;28;19931;-68
2023/10/06 02:23:07;;;;;;;;;;;13.10;99.90;;;;;;5066317;28;20346;-67
2023/10/06 02:25:32;;;;;;;;;;;13.10;99.90;;;;;;5065772;28;19924;-67
2023/10/06 02:27:59;;;;;;;;;;;13.10;99.90;;;;;;5069140;28;20365;-68
2023/10/06 02:30:33;;;;;;;;;;;13.10;99.90;;;;;;5059344;28;19962;-68
2023/10/06 02:32:59;;;;;;;;;;;13.10;99.90;;;;;;5055532;28;20001;-68
2023/10/06 02:35:25;;;;;;;;;;;13.10;99.90;;;;;;5056666;28;20041;-68
2023/10/06 02:37:50;;;;;;;;;;;13.00;99.90;;;;;;5056299;28;20376;-69
2023/10/06 02:40:17;;;;;;;;;;;13.10;99.90;;;;;;5065822;28;20011;-68
2023/10/06 02:42:46;;;;;;;;;;;13.10;99.90;;;;;;5052847;28;19932;-67
2023/10/06 02:45:20;;;;;;;;;;;13.10;99.90;;;;;;5060393;28;19923;-68
2023/10/06 02:47:49;;;;;;;;;;;13.10;99.90;;;;;;5067671;28;19990;-68
2023/10/06 02:50:19;;;;;;;;;;;13.10;99.90;;;;;;5059210;28;19931;-68
2023/10/06 02:52:46;;;;;;;;;;;13.10;99.90;;;;;;5058440;28;19920;-68
2023/10/06 02:55:33;;;;;;;;;;;13.00;99.90;;;;;;5060907;28;20233;-68
2023/10/06 02:57:58;;;;;;;;;;;13.10;99.90;;;;;;5053584;28;19935;-68
2023/10/06 03:02:55;;;;;;;;;;;13.00;99.90;;;;;;5056494;28;19917;-68
2023/10/06 03:05:30;;;;;;;;;;;13.00;99.90;;;;;;5053142;28;20430;-68
2023/10/06 03:07:56;;;;;;;;;;;13.00;99.90;;;;;;5052588;28;20305;-67
2023/10/06 03:10:26;;;;;;;;;;;13.10;99.90;;;;;;5070855;28;19916;-69
2023/10/06 03:12:52;;;;;;;;;;;13.10;99.90;;;;;;5051632;28;19929;-69
2023/10/06 03:15:28;;;;;;;;;;;13.10;99.90;;;;;;5073478;28;19943;-68
2023/10/06 03:17:58;;;;;;;;;;;13.20;99.90;;;;;;5054983;28;19920;-67
2023/10/06 03:20:27;;;;;;;;;;;13.10;99.90;;;;;;5071701;28;19973;-68
2023/10/06 03:22:55;;;;;;;;;;;13.20;99.90;;;;;;5060684;28;20331;-68
2023/10/06 03:25:21;;;;;;;;;;;13.10;99.90;;;;;;5058199;28;20015;-68
2023/10/06 03:27:53;;;;;;;;;;;13.10;99.90;;;;;;5062510;28;20118;-68
2023/10/06 03:30:28;;;;;;;;;;;13.00;99.90;;;;;;5072122;28;19968;-68
2023/10/06 03:32:54;;;;;;;;;;;13.00;99.90;;;;;;5064853;28;19924;-68
2023/10/06 03:35:36;;;;;;;;;;;13.00;99.90;;;;;;5061469;28;20468;-68
2023/10/06 03:38:08;;;;;;;;;;;13.00;99.90;;;;;;5029397;28;19920;-68
2023/10/06 03:44:25;;;;;;;;;;;13.00;99.90;;;;;;5071653;28;19920;-68
2023/10/06 03:46:14;;;;;;;;;;;13.00;99.90;;;;;;5047776;28;19924;-68
2023/10/06 03:48:39;;;;;;;;;;;13.10;99.90;;;;;;5055904;28;19931;-68
2023/10/06 03:51:05;;;;;;;;;;;13.10;99.90;;;;;;5058651;28;19923;-68
2023/10/06 03:53:31;;;;;;;;;;;13.10;99.90;;;;;;5067960;28;19917;-67
2023/10/06 03:55:57;;;;;;;;;;;13.10;99.90;;;;;;5069277;28;19921;-69
2023/10/06 03:58:29;;;;;;;;;;;13.20;99.90;;;;;;5047604;28;20444;-67
2023/10/06 04:00:54;;;;;;;;;;;13.20;99.90;;;;;;5065468;28;19920;-68
2023/10/06 04:03:21;;;;;;;;;;;13.10;99.90;;;;;;5056948;28;20246;-68
2023/10/06 04:05:48;;;;;;;;;;;13.20;99.90;;;;;;5061543;28;20327;-67
2023/10/06 04:08:16;;;;;;;;;;;13.20;99.90;;;;;;5064350;28;19995;-68
2023/10/06 04:10:42;;;;;;;;;;;13.20;99.90;;;;;;5078006;28;19927;-68
2023/10/06 04:13:09;;;;;;;;;;;13.20;99.90;;;;;;5057374;28;20308;-68
2023/10/06 04:15:38;;;;;;;;;;;13.20;99.90;;;;;;5060508;28;19994;-68
2023/10/06 04:18:05;;;;;;;;;;;13.20;99.90;;;;;;5060206;28;19916;-68
2023/10/06 04:20:32;;;;;;;;;;;13.20;99.90;;;;;;5076929;28;19916;-68
2023/10/06 04:23:02;;;;;;;;;;;13.20;99.90;;;;;;5059804;28;19916;-68
2023/10/06 04:25:27;;;;;;;;;;;13.20;99.90;;;;;;5069752;28;19920;-68
2023/10/06 04:27:53;;;;;;;;;;;13.20;99.90;;;;;;5046871;28;21652;-69
2023/10/06 04:30:18;;;;;;;;;;;13.20;99.90;;;;;;5059967;28;19925;-67
2023/10/06 04:32:44;;;;;;;;;;;13.20;99.90;;;;;;5055150;28;20055;-69
2023/10/06 04:35:19;;;;;;;;;;;13.10;99.90;;;;;;5071872;28;19923;-68
2023/10/06 04:37:48;;;;;;;;;;;13.10;99.90;;;;;;5053668;28;20345;-68
2023/10/06 04:40:20;;;;;;;;;;;13.10;99.90;;;;;;5045407;28;19997;-68
2023/10/06 04:42:45;;;;;;;;;;;13.10;99.90;;;;;;5064487;28;19989;-69
2023/10/06 04:45:12;;;;;;;;;;;13.10;99.90;;;;;;5060906;28;19924;-69
2023/10/06 04:47:40;;;;;;;;;;;13.00;99.90;;;;;;5064372;28;19931;-68
2023/10/06 04:50:09;;;;;;;;;;;13.00;99.90;;;;;;5077851;28;19916;-67
2023/10/06 04:52:38;;;;;;;;;;;13.00;99.90;;;;;;5056922;28;19916;-68
2023/10/06 04:55:04;;;;;;;;;;;13.10;99.90;;;;;;5062849;28;19936;-68
2023/10/06 04:57:30;;;;;;;;;;;13.10;99.90;;;;;;5074815;28;19954;-69
2023/10/06 04:59:55;;;;;;;;;;;13.10;99.90;;;;;;5058987;28;19939;-68
2023/10/06 05:02:23;;;;;;;;;;;13.10;99.90;;;;;;5062137;28;19916;-69
2023/10/06 05:04:51;;;;;;;;;;;13.10;99.90;;;;;;5052606;28;20068;-68
2023/10/06 05:07:16;;;;;;;;;;;13.10;99.90;;;;;;5059742;28;19924;-67
2023/10/06 05:09:42;;;;;;;;;;;13.10;99.90;;;;;;5059241;28;20310;-68
2023/10/06 05:12:09;;;;;;;;;;;13.10;99.90;;;;;;5057056;28;19916;-69
2023/10/06 05:14:35;;;;;;;;;;;13.10;99.90;;;;;;5055769;28;20400;-68
2023/10/06 05:17:01;;;;;;;;;;;13.10;99.90;;;;;;5058886;28;20063;-68
2023/10/06 05:19:27;;;;;;;;;;;13.00;99.90;;;;;;5074913;28;19931;-69
2023/10/06 05:21:53;;;;;;;;;;;13.10;99.90;;;;;;5068691;28;19920;-68
2023/10/06 05:24:18;;;;;;;;;;;13.00;99.90;;;;;;5063741;28;19992;-68
2023/10/06 05:26:44;;;;;;;;;;;13.00;99.90;;;;;;5063534;28;20380;-69
2023/10/06 05:29:14;;;;;;;;;;;13.00;99.90;;;;;;5062583;28;19982;-68
2023/10/06 05:31:42;;;;;;;;;;;13.10;99.90;;;;;;5074639;28;19952;-69
2023/10/06 05:34:10;;;;;;;;;;;13.10;99.90;;;;;;5064592;28;20086;-69
2023/10/06 05:36:36;;;;;;;;;;;13.00;99.90;;;;;;5061033;28;19916;-69
2023/10/06 05:39:02;;;;;;;;;;;13.00;99.90;;;;;;5057957;28;19932;-69
2023/10/06 05:41:32;;;;;;;;;;;13.10;99.90;;;;;;5070040;28;19971;-68
2023/10/06 05:43:58;;;;;;;;;;;13.10;99.90;;;;;;5076841;28;19917;-68
2023/10/06 05:46:24;;;;;;;;;;;13.10;99.90;;;;;;5067482;28;19924;-69
2023/10/06 05:48:51;;;;;;;;;;;13.10;99.90;;;;;;5056404;28;19924;-68
2023/10/06 05:51:21;;;;;;;;;;;13.10;99.90;;;;;;5074183;28;19992;-68
2023/10/06 05:53:48;;;;;;;;;;;13.10;99.90;;;;;;5064026;28;19916;-68
2023/10/06 05:56:15;;;;;;;;;;;13.10;99.90;;;;;;5065865;28;19916;-68
2023/10/06 05:58:44;;;;;;;;;;;13.10;99.90;;;;;;5054341;28;19925;-69
2023/10/06 06:01:20;;;;;;;;;;;13.10;99.90;;;;;;5060391;28;20359;-68
2023/10/06 06:03:46;;;;;;;;;;;13.10;99.90;;;;;;5066700;28;20375;-69
2023/10/06 06:06:14;;;;;;;;;;;13.20;99.90;;;;;;5059420;28;19988;-69
2023/10/06 06:08:47;;;;;;;;;;;13.20;99.90;;;;;;5071503;28;19966;-67
2023/10/06 06:11:12;;;;;;;;;;;13.20;99.90;;;;;;5054244;28;19994;-68
2023/10/06 06:13:38;;;;;;;;;;;13.30;99.90;;;;;;5055416;28;20332;-68
2023/10/06 06:16:07;;;;;;;;;;;13.30;99.90;;;;;;5061150;28;20349;-68
2023/10/06 06:18:33;;;;;;;;;;;13.30;99.90;;;;;;5072007;28;19943;-67
2023/10/06 06:21:03;;;;;;;;;;;13.30;99.90;;;;;;5057234;28;19920;-68
2023/10/06 06:23:35;;;;;;;;;;;13.30;99.90;;;;;;5060559;28;20022;-69
2023/10/06 06:26:01;;;;;;;;;;;13.40;99.90;;;;;;5063278;28;20292;-67
2023/10/06 06:28:27;;;;;;;;;;;13.40;99.90;;;;;;5058489;28;19951;-68
2023/10/06 06:30:53;;;;;;;;;;;13.40;99.90;;;;;;5059704;28;19924;-67
2023/10/06 06:33:22;;;;;;;;;;;13.50;99.90;;;;;;5064563;28;19920;-68
2023/10/06 06:35:48;;;;;;;;;;;13.50;99.90;;;;;;5066806;28;20394;-68
2023/10/06 06:38:14;;;;;;;;;;;13.60;99.90;;;;;;5064350;28;19924;-68
2023/10/06 06:40:40;;;;;;;;;;;13.60;99.90;;;;;;5082225;28;19988;-68
2023/10/06 06:43:19;;;;;;;;;;;13.60;99.90;;;;;;5064216;28;19916;-68
2023/10/06 06:45:45;;;;;;;;;;;13.60;99.90;;;;;;5039542;28;20000;-68
2023/10/06 06:48:16;;;;;;;;;;;13.60;99.90;;;;;;5063730;28;19917;-68
2023/10/06 06:50:43;;;;;;;;;;;13.70;99.90;;;;;;5068770;28;19928;-68
2023/10/06 06:53:09;;;;;;;;;;;13.70;99.90;;;;;;5067713;28;19950;-68
2023/10/06 06:55:34;;;;;;;;;;;13.80;99.90;;;;;;5067916;28;20265;-68
2023/10/06 06:58:08;;;;;;;;;;;13.70;99.90;;;;;;5088160;28;19989;-69
2023/10/06 07:00:35;;;;;;;;;;;13.60;99.90;;;;;;5062072;28;20006;-69
2023/10/06 07:03:00;;;;;;;;;;;13.60;99.90;;;;;;5064900;28;19970;-68
2023/10/06 07:05:26;;;;;;;;;;;13.50;99.90;;;;;;5045084;28;20886;-69
2023/10/06 07:07:52;;;;;;;;;;;13.50;99.90;;;;;;5059842;28;20390;-69
2023/10/06 07:10:22;;;;;;;;;;;13.60;99.90;;;;;;5063481;28;19923;-69
2023/10/06 07:12:49;;;;;;;;;;;13.60;99.90;;;;;;5065506;28;19927;-69
2023/10/06 07:15:17;;;;;;;;;;;13.60;99.90;;;;;;5070635;28;20055;-68
2023/10/06 07:17:47;;;;;;;;;;;13.70;99.90;;;;;;5070965;28;19920;-68
2023/10/06 07:20:14;;;;;;;;;;;13.70;99.90;;;;;;5082699;28;20026;-69
2023/10/06 07:22:40;;;;;;;;;;;13.80;99.90;;;;;;5064915;28;19924;-69
2023/10/06 07:25:07;;;;;;;;;;;13.90;99.90;;;;;;5065246;28;19926;-69
2023/10/06 07:27:34;;;;;;;;;;;13.90;99.90;;;;;;5070307;28;19920;-70
2023/10/06 07:30:04;;;;;;;;;;;14.00;99.90;;;;;;5086324;28;19916;-69
2023/10/06 07:32:30;;;;;;;;;;;14.10;99.90;;;;;;5070176;28;19967;-69
2023/10/06 07:34:56;;;;;;;;;;;14.10;99.90;;;;;;5086166;28;20348;-69
2023/10/06 07:37:21;;;;;;;;;;;14.10;99.90;;;;;;5067641;28;19967;-68
2023/10/06 07:39:47;;;;;;;;;;;14.20;99.90;;;;;;5070959;28;20291;-69
2023/10/06 07:42:16;;;;;;;;;;;14.30;99.90;;;;;;5069620;28;19916;-69
2023/10/06 07:44:45;;;;;;;;;;;14.30;99.90;;;;;;5072731;28;20008;-69
2023/10/06 07:47:10;;;;;;;;;;;14.40;99.90;;;;;;5069457;28;20030;-68
2023/10/06 07:49:36;;;;;;;;;;;14.40;99.90;;;;;;5072659;28;19920;-69
2023/10/06 07:52:04;;;;;;;;;;;14.30;99.90;;;;;;5084940;28;19920;-69
2023/10/06 07:54:32;;;;;;;;;;;14.20;99.90;;;;;;5070645;28;19916;-68
2023/10/06 07:56:58;;;;;;;;;;;14.10;99.90;;;;;;5070359;28;20003;-69
2023/10/06 07:59:23;;;;;;;;;;;14.10;99.90;;;;;;5049839;28;20004;-70
2023/10/06 08:01:49;;;;;;;;;;;14.00;99.90;;;;;;5070048;28;19925;-68
2023/10/06 08:04:14;;;;;;;;;;;14.00;99.90;;;;;;5083535;28;19971;-69
2023/10/06 08:06:40;;;;;;;;;;;14.10;99.90;;;;;;5067779;28;19924;-67
2023/10/06 08:09:05;;;;;;;;;;;14.10;99.90;;;;;;5041448;28;19946;-70
2023/10/06 08:11:34;;;;;;;;;;;14.30;99.90;;;;;;5085354;28;19938;-69
2023/10/06 08:13:59;;;;;;;;;;;14.50;99.90;;;;;;5066725;28;20348;-69
2023/10/06 08:16:30;;;;;;;;;;;14.50;99.90;;;;;;5074156;28;19916;-71
2023/10/06 08:18:55;;;;;;;;;;;14.60;99.90;;;;;;5069210;28;19916;-69
2023/10/06 08:21:22;;;;;;;;;;;14.50;99.90;;;;;;5067354;28;20034;-68
2023/10/06 08:23:48;;;;;;;;;;;14.30;99.90;;;;;;5063186;28;19916;-68
2023/10/06 08:26:14;;;;;;;;;;;14.20;99.90;;;;;;5066922;28;19955;-68
2023/10/06 08:28:40;;;;;;;;;;;14.20;99.90;;;;;;5064280;28;20356;-69
2023/10/06 08:31:13;;;;;;;;;;;14.20;99.90;;;;;;5085073;28;19916;-69
2023/10/06 08:33:40;;;;;;;;;;;14.10;99.90;;;;;;5056137;28;20320;-70
2023/10/06 08:36:08;;;;;;;;;;;14.10;99.90;;;;;;5077862;28;19916;-70
2023/10/06 08:38:33;;;;;;;;;;;14.10;99.90;;;;;;5066105;28;19924;-70
2023/10/06 08:41:02;;;;;;;;;;;14.10;99.90;;;;;;5049762;28;19920;-70
2023/10/06 08:43:28;;;;;;;;;;;14.00;99.90;;;;;;5069519;28;20331;-69
2023/10/06 08:45:55;;;;;;;;;;;14.10;99.90;;;;;;5069502;28;19931;-71
2023/10/06 08:48:24;;;;;;;;;;;14.10;99.90;;;;;;5074806;28;20394;-70
2023/10/06 08:50:53;;;;;;;;;;;14.20;99.90;;;;;;5066226;28;19920;-71
2023/10/06 08:53:20;;;;;;;;;;;14.20;99.90;;;;;;5067011;28;19927;-71
2023/10/06 08:55:45;;;;;;;;;;;14.20;99.90;;;;;;5062490;28;19952;-69
2023/10/06 08:58:14;;;;;;;;;;;14.20;99.90;;;;;;5079818;28;19959;-69
2023/10/06 09:00:43;;;;;;;;;;;14.20;99.90;;;;;;5063302;28;19925;-70
2023/10/06 09:03:11;;;;;;;;;;;14.20;99.90;;;;;;5080931;28;19947;-69
2023/10/06 09:05:40;;;;;;;;;;;14.30;99.90;;;;;;5062567;28;19994;-72
2023/10/06 09:08:09;;;;;;;;;;;14.30;99.90;;;;;;5058174;28;19990;-71
2023/10/06 09:10:40;;;;;;;;;;;14.40;99.90;;;;;;5051466;28;19934;-71
2023/10/06 09:13:11;;;;;;;;;;;14.50;99.90;;;;;;5077451;28;20252;-70
2023/10/06 09:15:37;;;;;;;;;;;14.60;99.90;;;;;;5072398;28;19982;-70
2023/10/06 09:18:21;;;;;;;;;;;14.60;99.90;;;;;;5071156;28;19927;-71
2023/10/06 09:20:47;;;;;;;;;;;14.70;99.90;;;;;;5068836;28;20309;-71
2023/10/06 09:23:32;;;;;;;;;;;14.70;99.90;;;;;;5061529;28;19916;-70
2023/10/06 09:25:58;;;;;;;;;;;14.80;99.90;;;;;;5081017;28;20061;-71
2023/10/06 09:28:23;;;;;;;;;;;15.00;99.90;;;;;;5070943;28;20079;-72
2023/10/06 09:31:01;;;;;;;;;;;15.40;99.90;;;;;;5051898;28;19920;-69
2023/10/06 09:33:37;;;;;;;;;;;15.50;99.90;;;;;;5066590;28;20257;-72
2023/10/06 09:36:06;;;;;;;;;;;15.90;99.90;;;;;;5080371;28;19971;-71
2023/10/06 09:38:32;;;;;;;;;;;16.00;99.90;;;;;;5076743;28;20359;-69
2023/10/06 09:40:58;;;;;;;;;;;16.10;99.90;;;;;;5085309;28;19963;-71
2023/10/06 09:43:25;;;;;;;;;;;16.20;99.90;;;;;;5065726;28;19966;-71
2023/10/06 09:45:51;;;;;;;;;;;16.10;99.90;;;;;;5049166;28;20660;-70
2023/10/06 09:48:20;;;;;;;;;;;16.10;99.90;;;;;;5069940;28;19945;-71
2023/10/06 09:50:50;;;;;;;;;;;16.20;99.90;;;;;;5067241;28;20003;-72
2023/10/06 09:53:19;;;;;;;;;;;16.40;99.90;;;;;;5079049;28;19962;-71
2023/10/06 09:55:46;;;;;;;;;;;16.50;99.90;;;;;;5070137;28;19955;-71
2023/10/06 09:58:13;;;;;;;;;;;16.60;99.90;;;;;;5069720;28;19920;-69
2023/10/06 10:00:39;;;;;;;;;;;16.60;99.90;;;;;;5078171;28;19917;-70
2023/10/06 10:03:06;;;;;;;;;;;16.70;99.90;;;;;;5068246;28;19927;-71
2023/10/06 10:05:32;;;;;;;;;;;16.70;99.90;;;;;;5063553;28;19919;-70
2023/10/06 10:07:58;;;;;;;;;;;16.70;99.90;;;;;;5064039;28;19944;-71
2023/10/06 10:10:25;;;;;;;;;;;16.70;99.90;;;;;;5064667;28;20007;-69
2023/10/06 10:12:52;;;;;;;;;;;16.70;99.90;;;;;;5067214;28;19923;-70
2023/10/06 10:15:24;;;;;;;;;;;16.80;99.90;;;;;;5063982;28;20328;-71
2023/10/06 10:17:54;;;;;;;;;;;16.80;99.90;;;;;;5069222;28;19930;-70
2023/10/06 10:20:23;;;;;;;;;;;16.90;99.90;;;;;;5065960;28;19946;-69
2023/10/06 10:22:48;;;;;;;;;;;16.80;99.90;;;;;;5065212;28;19946;-70
2023/10/06 10:25:18;;;;;;;;;;;16.80;99.90;;;;;;5077008;28;20248;-70
2023/10/06 10:27:43;;;;;;;;;;;16.70;99.90;;;;;;5066268;28;19920;-71
2023/10/06 10:30:10;;;;;;;;;;;16.80;99.90;;;;;;5066538;28;19965;-69
2023/10/06 10:32:41;;;;;;;;;;;16.90;99.90;;;;;;5051285;28;19927;-71
2023/10/06 10:35:16;;;;;;;;;;;16.90;99.90;;;;;;5067760;28;19954;-71
2023/10/06 10:37:51;;;;;;;;;;;17.00;99.90;;;;;;5046857;28;20335;-70
2023/10/06 10:40:20;;;;;;;;;;;17.00;99.90;;;;;;5082079;28;19916;-70
2023/10/06 10:42:49;;;;;;;;;;;17.00;99.90;;;;;;5067775;28;19931;-70
2023/10/06 10:45:30;;;;;;;;;;;17.00;99.90;;;;;;5083674;28;19978;-71
2023/10/06 10:47:58;;;;;;;;;;;17.10;99.90;;;;;;5050112;28;20026;-72
2023/10/06 10:50:42;;;;;;;;;;;17.20;99.90;;;;;;5068231;28;19924;-70
2023/10/06 10:53:08;;;;;;;;;;;17.20;99.90;;;;;;5063085;28;19923;-70
2023/10/06 10:55:34;;;;;;;;;;;17.20;99.90;;;;;;5043878;28;19925;-70
2023/10/06 10:58:00;;;;;;;;;;;17.40;99.90;;;;;;5053256;28;19959;-71
2023/10/06 11:00:26;;;;;;;;;;;17.70;99.90;;;;;;5059806;28;19959;-69
2023/10/06 11:02:52;;;;;;;;;;;17.90;99.90;;;;;;5059215;28;20347;-69
2023/10/06 11:05:18;;;;;;;;;;;17.90;99.90;;;;;;5035649;28;19921;-69
2023/10/06 11:07:54;;;;;;;;;;;17.90;99.90;;;;;;5057683;28;20051;-72
2023/10/06 11:10:22;;;;;;;;;;;17.90;99.90;;;;;;5049028;28;19921;-69
2023/10/06 11:12:50;;;;;;;;;;;18.00;99.90;;;;;;5065939;28;20305;-71
2023/10/06 11:15:28;;;;;;;;;;;18.20;99.90;;;;;;5041176;28;19924;-70
2023/10/06 11:17:58;;;;;;;;;;;18.30;99.90;;;;;;5080831;28;19928;-72
2023/10/06 11:20:27;;;;;;;;;;;18.50;99.90;;;;;;5068566;28;19955;-70
2023/10/06 11:22:59;;;;;;;;;;;18.50;99.90;;;;;;5082759;28;20025;-70
2023/10/06 11:25:28;;;;;;;;;;;18.60;99.90;;;;;;5051494;28;20077;-70
2023/10/06 11:28:04;;;;;;;;;;;18.50;99.90;;;;;;5069841;28;19924;-70
2023/10/06 11:30:32;;;;;;;;;;;18.30;99.90;;;;;;5068636;28;19926;-69
2023/10/06 11:33:02;;;;;;;;;;;18.20;99.90;;;;;;5050377;28;20287;-70
2023/10/06 11:35:29;;;;;;;;;;;18.10;99.90;;;;;;5065333;28;19920;-73
2023/10/06 11:37:55;;;;;;;;;;;18.00;99.90;;;;;;5068170;28;19920;-71
2023/10/06 11:40:23;;;;;;;;;;;17.90;99.90;;;;;;5052701;28;19920;-68
2023/10/06 11:42:49;;;;;;;;;;;17.90;99.90;;;;;;5071284;28;20007;-71
2023/10/06 11:45:24;;;;;;;;;;;17.90;99.90;;;;;;5070545;28;19954;-72
2023/10/06 11:47:51;;;;;;;;;;;17.90;99.90;;;;;;5069591;28;19931;-67
2023/10/06 11:50:20;;;;;;;;;;;17.90;99.90;;;;;;5070471;28;19985;-69
2023/10/06 11:52:46;;;;;;;;;;;18.00;99.90;;;;;;5068252;28;20322;-67
2023/10/06 11:55:20;;;;;;;;;;;18.10;99.90;;;;;;5070092;28;20029;-68
2023/10/06 11:57:51;;;;;;;;;;;18.20;99.90;;;;;;5079119;28;19921;-69
2023/10/06 12:00:18;;;;;;;;;;;18.30;99.90;;;;;;5064667;28;19917;-67
2023/10/06 12:02:49;;;;;;;;;;;18.40;99.90;;;;;;5059659;28;19943;-67
2023/10/06 12:05:16;;;;;;;;;;;18.40;99.90;;;;;;5087743;28;19982;-69
2023/10/06 12:07:42;;;;;;;;;;;18.30;99.90;;;;;;5070375;28;19931;-67
2023/10/06 12:10:08;;;;;;;;;;;18.30;99.90;;;;;;5054063;28;19943;-66
2023/10/06 12:12:34;;;;;;;;;;;18.30;99.90;;;;;;5067867;28;20288;-66
2023/10/06 12:14:59;;;;;;;;;;;18.30;99.90;;;;;;5072694;28;19920;-66
2023/10/06 12:17:27;;;;;;;;;;;18.40;99.90;;;;;;5070036;28;20043;-65
2023/10/06 12:19:52;;;;;;;;;;;18.40;99.90;;;;;;5072779;28;19917;-67
2023/10/06 12:22:18;;;;;;;;;;;18.50;99.90;;;;;;5050466;28;20002;-68
2023/10/06 12:24:45;;;;;;;;;;;18.40;99.90;;;;;;5068574;28;19916;-69
2023/10/06 12:27:11;;;;;;;;;;;18.50;99.90;;;;;;5057122;28;19928;-67
2023/10/06 12:29:36;;;;;;;;;;;18.50;99.90;;;;;;5074428;28;19969;-67
2023/10/06 12:32:02;;;;;;;;;;;18.50;99.90;;;;;;5079008;28;19924;-69
2023/10/06 12:34:27;;;;;;;;;;;18.50;99.90;;;;;;5081412;28;19923;-68
2023/10/06 12:37:01;;;;;;;;;;;18.60;99.90;;;;;;5077875;28;20377;-71
2023/10/06 12:39:34;;;;;;;;;;;18.70;99.90;;;;;;5085665;28;19932;-67
2023/10/06 12:42:03;;;;;;;;;;;18.70;99.90;;;;;;5076591;28;19925;-66
2023/10/06 12:44:29;;;;;;;;;;;18.70;99.90;;;;;;5082787;28;19928;-67
2023/10/06 12:46:55;;;;;;;;;;;18.70;99.90;;;;;;5074006;28;20051;-67
2023/10/06 12:49:24;;;;;;;;;;;18.80;99.90;;;;;;5079752;28;20304;-68
2023/10/06 12:51:50;;;;;;;;;;;18.80;99.90;;;;;;5083091;28;20457;-67
2023/10/06 12:54:15;;;;;;;;;;;18.80;99.90;;;;;;5068853;28;19924;-67
2023/10/06 12:56:44;;;;;;;;;;;19.00;99.90;;;;;;5063368;28;19981;-67
2023/10/06 12:59:10;;;;;;;;;;;19.10;99.90;;;;;;5068192;28;19924;-67
2023/10/06 13:01:36;;;;;;;;;;;19.10;99.90;;;;;;5078828;28;19915;-70
2023/10/06 13:04:01;;;;;;;;;;;19.20;99.90;;;;;;5069215;28;19927;-69
2023/10/06 13:06:29;;;;;;;;;;;19.30;99.90;;;;;;5077087;28;19919;-67
2023/10/06 13:08:55;;;;;;;;;;;19.20;99.90;;;;;;5067940;28;19920;-66
2023/10/06 13:11:23;;;;;;;;;;;19.10;99.90;;;;;;5067158;28;20318;-68
2023/10/06 13:13:49;;;;;;;;;;;19.00;99.90;;;;;;5077859;28;19916;-70
2023/10/06 13:16:17;;;;;;;;;;;19.00;99.90;;;;;;5050972;28;19998;-67
2023/10/06 13:18:43;;;;;;;;;;;19.00;99.90;;;;;;5048235;28;19916;-67
2023/10/06 13:21:08;;;;;;;;;;;19.00;99.90;;;;;;5065731;28;20012;-67
2023/10/06 13:23:34;;;;;;;;;;;19.00;99.90;;;;;;5066086;28;19947;-68
2023/10/06 13:26:00;;;;;;;;;;;19.10;99.90;;;;;;5067534;28;20347;-68
2023/10/06 13:28:26;;;;;;;;;;;19.20;99.90;;;;;;5067047;28;19917;-68
2023/10/06 13:30:51;;;;;;;;;;;19.20;99.90;;;;;;5075117;28;19923;-67
2023/10/06 13:33:17;;;;;;;;;;;19.20;99.90;;;;;;5076854;28;19916;-69
2023/10/06 13:35:44;;;;;;;;;;;19.20;99.90;;;;;;5063618;28;19932;-67
2023/10/06 13:38:10;;;;;;;;;;;19.20;99.90;;;;;;5063286;28;20379;-67
2023/10/06 13:40:37;;;;;;;;;;;19.20;99.90;;;;;;5063984;28;19966;-69
2023/10/06 13:43:03;;;;;;;;;;;19.20;99.90;;;;;;5059315;28;19916;-68
2023/10/06 13:45:30;;;;;;;;;;;19.30;99.90;;;;;;5081711;28;19927;-68
2023/10/06 13:47:55;;;;;;;;;;;19.20;99.90;;;;;;5046075;28;20441;-68
2023/10/06 13:50:27;;;;;;;;;;;19.30;99.90;;;;;;5067394;28;20006;-69
2023/10/06 13:52:52;;;;;;;;;;;19.30;99.90;;;;;;5062769;28;20371;-67
2023/10/06 13:55:19;;;;;;;;;;;19.20;99.90;;;;;;5068396;28;19989;-67
2023/10/06 13:57:45;;;;;;;;;;;19.20;99.90;;;;;;5065153;28;19916;-68
2023/10/06 14:00:14;;;;;;;;;;;19.10;99.90;;;;;;5067135;28;19922;-68
2023/10/06 14:02:39;;;;;;;;;;;19.10;99.90;;;;;;5068598;28;19946;-67
2023/10/06 14:05:05;;;;;;;;;;;19.10;99.90;;;;;;5088634;28;19924;-67
2023/10/06 14:07:33;;;;;;;;;;;19.10;99.90;;;;;;5068027;28;20378;-67
2023/10/06 14:09:59;;;;;;;;;;;19.10;99.90;;;;;;5052399;28;20405;-68
2023/10/06 14:12:27;;;;;;;;;;;19.20;99.90;;;;;;5069690;28;19986;-68
2023/10/06 14:17:20;;;;;;;;;;;19.10;99.90;;;;;;5068375;28;19962;-67
2023/10/06 14:19:49;;;;;;;;;;;19.10;99.90;;;;;;5066475;28;20893;-67
2023/10/06 14:22:21;;;;;;;;;;;19.00;99.90;;;;;;5070561;28;19928;-67
2023/10/06 14:24:49;;;;;;;;;;;18.90;99.90;;;;;;5082783;28;19927;-67
2023/10/06 14:27:18;;;;;;;;;;;18.90;99.90;;;;;;5068647;28;19966;-66
2023/10/06 14:29:44;;;;;;;;;;;18.80;99.90;;;;;;5084558;28;20030;-67
2023/10/06 14:32:27;;;;;;;;;;;18.80;99.90;;;;;;5084531;28;19994;-68
2023/10/06 14:34:58;;;;;;;;;;;18.70;99.90;;;;;;5086313;28;19985;-68